Time;durP1;ratioP1;P1;durP2;ratioP2;P2;SDS_P1;SDS_P2;PMS_P1;PMS_P2;Temp;Humidity;BMP_temperature;BMP_pressure;BME280_temperature;BME280_humidity;BME280_pressure;Samples;Min_cycle;Max_cycle;Signal;HPM_P1;HPM_P2
2023/04/02 00:01:45;;;;;;;8.13;6.60;;;7.30;99.90;;;;;;5135054;27;20191;-86
2023/04/02 00:04:20;;;;;;;9.57;6.43;;;7.20;99.90;;;;;;5135472;27;20206;-87
2023/04/02 00:06:53;;;;;;;10.27;6.70;;;7.20;99.90;;;;;;5153091;27;20209;-87
2023/04/02 00:09:33;;;;;;;9.73;6.87;;;7.20;99.90;;;;;;5155897;27;20301;-86
2023/04/02 00:12:17;;;;;;;9.03;6.50;;;7.20;99.90;;;;;;5155494;27;20190;-86
2023/04/02 00:14:48;;;;;;;9.13;6.13;;;7.10;99.90;;;;;;5140310;27;20199;-88
2023/04/02 00:17:15;;;;;;;7.07;6.33;;;7.10;99.90;;;;;;5136411;27;20202;-87
2023/04/02 00:19:46;;;;;;;10.27;6.67;;;7.10;99.90;;;;;;5135478;28;20251;-87
2023/04/02 00:22:17;;;;;;;11.30;6.20;;;7.10;99.90;;;;;;5135422;28;20615;-87
2023/04/02 00:24:45;;;;;;;10.00;7.20;;;7.10;99.90;;;;;;5135397;28;20801;-86
2023/04/02 00:27:14;;;;;;;10.97;6.77;;;7.10;99.90;;;;;;5155445;27;20297;-86
2023/04/02 00:29:47;;;;;;;13.03;7.53;;;7.10;99.90;;;;;;5155563;27;20226;-87
2023/04/02 00:32:20;;;;;;;10.10;6.80;;;7.10;99.90;;;;;;5155919;27;20237;-88
2023/04/02 00:34:47;;;;;;;12.67;6.80;;;7.10;99.90;;;;;;5155867;27;20259;-87
2023/04/02 00:37:22;;;;;;;8.87;6.70;;;7.10;99.90;;;;;;5154780;27;20768;-84
2023/04/02 00:39:50;;;;;;;10.43;6.73;;;7.10;99.90;;;;;;5156045;27;20272;-85
2023/04/02 00:42:21;;;;;;;10.27;6.87;;;7.00;99.90;;;;;;5155891;27;20212;-87
2023/04/02 00:44:49;;;;;;;10.10;6.13;;;7.00;99.90;;;;;;5155306;27;20274;-85
2023/04/02 00:47:20;;;;;;;11.33;6.60;;;7.00;99.90;;;;;;5155931;27;20236;-87
2023/04/02 00:49:50;;;;;;;12.27;6.70;;;7.00;99.90;;;;;;5155788;27;20202;-85
2023/04/02 00:52:20;;;;;;;12.13;6.70;;;6.90;99.90;;;;;;5155574;27;20233;-83
2023/04/02 00:54:52;;;;;;;10.77;6.57;;;6.90;99.90;;;;;;5155733;27;20214;-88
2023/04/02 00:57:24;;;;;;;11.60;6.90;;;6.90;99.90;;;;;;5155546;27;20298;-85
2023/04/02 00:59:57;;;;;;;11.80;6.40;;;6.90;99.90;;;;;;5155490;27;20205;-86
2023/04/02 01:02:27;;;;;;;13.40;6.50;;;6.80;99.90;;;;;;5155971;27;20274;-87
2023/04/02 01:04:56;;;;;;;10.00;6.50;;;6.90;99.90;;;;;;5155739;27;20497;-87
2023/04/02 01:07:44;;;;;;;10.03;6.47;;;6.80;99.90;;;;;;5152796;27;20233;-88
2023/04/02 01:10:33;;;;;;;7.80;5.70;;;6.80;99.90;;;;;;5155200;27;20566;-82
2023/04/02 01:13:09;;;;;;;9.80;5.80;;;6.70;99.90;;;;;;5138048;27;20609;-85
2023/04/02 01:15:41;;;;;;;9.73;6.37;;;6.70;99.90;;;;;;5155876;27;20190;-87
2023/04/02 01:18:25;;;;;;;9.80;5.77;;;6.70;99.90;;;;;;5154469;27;20203;-84
2023/04/02 01:21:41;;;;;;;7.00;5.57;;;6.60;99.90;;;;;;5155326;27;20195;-85
2023/04/02 01:24:11;;;;;;;10.90;6.13;;;6.60;99.90;;;;;;5071795;28;20178;-85
2023/04/02 01:26:56;;;;;;;8.97;6.63;;;6.60;99.90;;;;;;5064532;28;20205;-83
2023/04/02 01:29:28;;;;;;;8.57;5.80;;;6.60;99.90;;;;;;5112452;27;20619;-86
2023/04/02 01:32:00;;;;;;;9.90;6.40;;;6.60;99.90;;;;;;5137916;27;20203;-86
2023/04/02 01:34:28;;;;;;;12.33;6.53;;;6.60;99.90;;;;;;5137857;27;20660;-86
2023/04/02 01:37:06;;;;;;;10.07;6.47;;;6.60;99.90;;;;;;5137628;27;20283;-86
2023/04/02 01:39:44;;;;;;;7.20;5.63;;;6.60;99.90;;;;;;5143689;27;20205;-85
2023/04/02 01:42:17;;;;;;;11.07;6.43;;;6.60;99.90;;;;;;5158640;27;20187;-83
2023/04/02 01:44:49;;;;;;;7.60;5.83;;;6.60;99.90;;;;;;5158904;27;20194;-84
2023/04/02 01:47:19;;;;;;;10.07;5.70;;;6.60;99.90;;;;;;5157855;27;20571;-86
2023/04/02 01:49:47;;;;;;;7.70;5.43;;;6.40;99.90;;;;;;5158246;27;20242;-86
2023/04/02 01:52:17;;;;;;;7.77;5.23;;;6.40;99.90;;;;;;5158182;27;20309;-86
2023/04/02 01:54:46;;;;;;;9.47;5.60;;;6.40;99.90;;;;;;5158304;27;20285;-85
2023/04/02 01:57:13;;;;;;;8.90;5.70;;;6.40;99.90;;;;;;5157948;27;20510;-84
2023/04/02 01:59:40;;;;;;;6.73;5.40;;;6.40;99.90;;;;;;5158270;27;20199;-88
2023/04/02 02:02:12;;;;;;;8.73;5.57;;;6.40;99.90;;;;;;5157512;27;20610;-86
2023/04/02 02:04:40;;;;;;;9.00;5.50;;;6.40;99.90;;;;;;5156974;27;20229;-87
2023/04/02 02:07:14;;;;;;;7.83;5.33;;;6.40;99.90;;;;;;5156877;27;20201;-87
2023/04/02 02:09:42;;;;;;;8.07;5.20;;;6.50;99.90;;;;;;5157019;27;20207;-86
2023/04/02 02:12:13;;;;;;;12.97;5.73;;;6.40;99.90;;;;;;5158313;27;20595;-87
2023/04/02 02:14:46;;;;;;;8.93;5.33;;;6.40;99.90;;;;;;5158105;27;20185;-87
2023/04/02 02:17:16;;;;;;;6.00;5.10;;;6.50;99.90;;;;;;5158663;27;20625;-88
2023/04/02 02:19:47;;;;;;;8.67;5.00;;;6.40;99.90;;;;;;5160250;27;20221;-88
2023/04/02 02:22:21;;;;;;;9.13;4.87;;;6.30;99.90;;;;;;5140813;27;20209;-86
2023/04/02 02:24:49;;;;;;;5.13;4.43;;;6.30;99.90;;;;;;5161030;27;20209;-86
2023/04/02 02:27:45;;;;;;;10.07;5.30;;;6.20;99.90;;;;;;5159113;27;20205;-87
2023/04/02 02:30:16;;;;;;;7.50;5.07;;;6.10;99.90;;;;;;5137772;27;20291;-86
2023/04/02 02:32:51;;;;;;;8.13;5.23;;;6.10;99.90;;;;;;5138874;27;20208;-85
2023/04/02 02:35:23;;;;;;;7.43;4.70;;;6.00;99.90;;;;;;5158285;27;20175;-88
2023/04/02 02:37:56;;;;;;;7.77;4.47;;;6.00;99.90;;;;;;5158500;27;20579;-85
2023/04/02 02:40:29;;;;;;;8.27;5.07;;;6.00;99.90;;;;;;5158901;27;20194;-88
2023/04/02 02:43:01;;;;;;;7.27;5.30;;;5.90;99.90;;;;;;5137378;27;20259;-87
2023/04/02 02:45:32;;;;;;;6.77;4.90;;;5.90;99.90;;;;;;5137656;27;20577;-87
2023/04/02 02:48:03;;;;;;;7.50;4.97;;;5.90;99.90;;;;;;5137533;27;20228;-85
2023/04/02 02:50:32;;;;;;;7.83;5.37;;;5.90;99.90;;;;;;5139669;27;20616;-88
2023/04/02 02:53:04;;;;;;;5.30;4.70;;;5.90;99.90;;;;;;5158496;27;20529;-86
2023/04/02 02:55:35;;;;;;;11.27;5.20;;;5.90;99.90;;;;;;5157476;27;20574;-87
2023/04/02 02:58:06;;;;;;;8.10;4.70;;;5.90;99.90;;;;;;5156824;27;20221;-86
2023/04/02 03:00:34;;;;;;;8.60;5.17;;;5.90;99.90;;;;;;5156563;27;20223;-83
2023/04/02 03:03:07;;;;;;;8.23;5.83;;;5.90;99.90;;;;;;5156757;27;20222;-87
2023/04/02 03:05:35;;;;;;;6.83;4.80;;;5.90;99.90;;;;;;5156964;27;20198;-84
2023/04/02 03:08:06;;;;;;;6.67;4.60;;;5.80;99.90;;;;;;5157197;27;20222;-86
2023/04/02 03:10:39;;;;;;;6.60;5.20;;;5.80;99.90;;;;;;5156626;27;20309;-86
2023/04/02 03:13:18;;;;;;;9.00;5.20;;;5.80;99.90;;;;;;5156671;27;20510;-85
2023/04/02 03:15:55;;;;;;;8.23;5.37;;;5.80;99.90;;;;;;5156258;27;20502;-86
2023/04/02 03:18:34;;;;;;;7.60;5.03;;;5.70;99.90;;;;;;5150560;27;20282;-85
2023/04/02 03:21:11;;;;;;;8.30;6.00;;;5.70;99.90;;;;;;5137661;27;20317;-86
2023/04/02 03:23:42;;;;;;;8.67;5.23;;;5.70;99.90;;;;;;5155721;27;20205;-89
2023/04/02 03:26:15;;;;;;;7.83;4.60;;;5.70;99.90;;;;;;5155918;27;20210;-86
2023/04/02 03:28:46;;;;;;;7.87;4.97;;;5.60;99.90;;;;;;5141057;27;20538;-89
2023/04/02 03:31:17;;;;;;;6.63;4.97;;;5.60;99.90;;;;;;5134652;27;20224;-90
2023/04/02 03:33:51;;;;;;;10.83;5.90;;;5.60;99.90;;;;;;5135731;27;20477;-88
2023/04/02 03:36:22;;;;;;;8.63;5.27;;;5.60;99.90;;;;;;5135394;27;20266;-86
2023/04/02 03:38:54;;;;;;;8.40;5.10;;;5.60;99.90;;;;;;5134646;27;20274;-86
2023/04/02 03:41:25;;;;;;;11.37;5.23;;;5.70;99.90;;;;;;5135227;27;20199;-88
2023/04/02 03:43:56;;;;;;;7.30;4.80;;;5.70;99.90;;;;;;5149187;27;20206;-88
2023/04/02 03:46:27;;;;;;;6.33;4.70;;;5.60;99.90;;;;;;5155908;27;20286;-88
2023/04/02 03:48:58;;;;;;;7.13;5.10;;;5.60;99.90;;;;;;5155121;27;20230;-87
2023/04/02 03:51:30;;;;;;;10.80;6.17;;;5.60;99.90;;;;;;5156658;27;20255;-89
2023/04/02 03:53:57;;;;;;;9.93;5.33;;;5.60;99.90;;;;;;5156585;27;20286;-87
2023/04/02 03:56:30;;;;;;;7.33;5.13;;;5.60;99.90;;;;;;5155931;27;20205;-85
2023/04/02 03:59:07;;;;;;;6.93;5.60;;;5.60;99.90;;;;;;5156261;27;20198;-86
2023/04/02 04:01:42;;;;;;;8.73;5.30;;;5.60;99.90;;;;;;5156153;27;20344;-87
2023/04/02 04:04:16;;;;;;;9.80;5.83;;;5.60;99.90;;;;;;5156170;27;20300;-87
2023/04/02 04:06:45;;;;;;;8.40;5.07;;;5.60;99.90;;;;;;5155994;27;20187;-89
2023/04/02 04:09:20;;;;;;;7.87;5.40;;;5.50;99.90;;;;;;5155765;27;20222;-87
2023/04/02 04:11:51;;;;;;;6.23;4.63;;;5.40;99.90;;;;;;5155570;27;20269;-86
2023/04/02 04:14:21;;;;;;;6.83;4.30;;;5.30;99.90;;;;;;5151623;27;20199;-84
2023/04/02 04:16:53;;;;;;;7.57;4.50;;;5.10;99.90;;;;;;5135447;28;20525;-83
2023/04/02 04:19:28;;;;;;;7.13;5.00;;;5.10;99.90;;;;;;5135086;28;20187;-87
2023/04/02 04:22:09;;;;;;;7.43;4.97;;;5.00;99.90;;;;;;5143605;27;20201;-86
2023/04/02 04:24:38;;;;;;;8.27;4.97;;;5.00;99.90;;;;;;5156722;27;20210;-81
2023/04/02 04:27:09;;;;;;;8.03;5.23;;;5.00;99.90;;;;;;5155715;27;20227;-83
2023/04/02 04:29:44;;;;;;;7.73;5.10;;;4.90;99.90;;;;;;5155199;27;20630;-84
2023/04/02 04:32:30;;;;;;;8.03;5.27;;;4.90;99.90;;;;;;5155734;27;20206;-84
2023/04/02 04:35:05;;;;;;;9.23;4.93;;;5.00;99.90;;;;;;5155789;27;20194;-86
2023/04/02 04:37:35;;;;;;;9.63;5.30;;;4.80;99.90;;;;;;5155290;27;20211;-87
2023/04/02 04:40:10;;;;;;;7.10;4.63;;;4.80;99.90;;;;;;5156162;27;20281;-85
2023/04/02 04:42:41;;;;;;;6.63;4.33;;;4.80;99.90;;;;;;5155704;27;20256;-87
2023/04/02 04:45:23;;;;;;;10.30;4.70;;;4.70;99.90;;;;;;5155263;27;20720;-87
2023/04/02 04:47:54;;;;;;;7.63;4.33;;;4.80;99.90;;;;;;5155652;27;20273;-86
2023/04/02 04:50:29;;;;;;;10.93;4.93;;;4.80;99.90;;;;;;5154777;27;20302;-88
2023/04/02 04:52:56;;;;;;;8.63;4.40;;;4.70;99.90;;;;;;5156229;27;20262;-87
2023/04/02 04:55:29;;;;;;;5.47;3.60;;;4.80;99.90;;;;;;5137414;27;20271;-87
2023/04/02 04:58:01;;;;;;;8.93;5.33;;;4.70;99.90;;;;;;5155414;27;20302;-87
2023/04/02 05:00:39;;;;;;;10.93;4.30;;;4.70;99.90;;;;;;5158160;27;20199;-85
2023/04/02 05:03:15;;;;;;;5.77;3.50;;;4.70;99.90;;;;;;5159516;27;20489;-85
2023/04/02 05:05:45;;;;;;;5.73;3.53;;;4.70;99.90;;;;;;5159450;27;20194;-86
2023/04/02 05:08:17;;;;;;;6.07;3.90;;;4.70;99.90;;;;;;5159542;27;20202;-86
2023/04/02 05:10:48;;;;;;;5.70;3.27;;;4.60;99.90;;;;;;5159095;27;20561;-82
2023/04/02 05:13:20;;;;;;;9.47;3.97;;;4.60;99.90;;;;;;5159051;27;20217;-87
2023/04/02 05:15:55;;;;;;;7.30;4.07;;;4.50;99.90;;;;;;5159347;27;20557;-87
2023/04/02 05:18:27;;;;;;;8.20;3.73;;;4.50;99.90;;;;;;5144744;27;20209;-92
2023/04/02 05:21:02;;;;;;;6.43;3.70;;;4.40;99.90;;;;;;5139376;27;20286;-87
2023/04/02 05:23:34;;;;;;;6.70;3.60;;;4.40;99.90;;;;;;5144606;27;20222;-85
2023/04/02 05:26:06;;;;;;;4.63;3.00;;;4.40;99.90;;;;;;5158789;27;20198;-86
2023/04/02 05:28:40;;;;;;;4.70;3.33;;;4.30;99.90;;;;;;5158661;27;20207;-85
2023/04/02 05:31:12;;;;;;;6.07;3.27;;;4.30;99.90;;;;;;5159149;27;20792;-82
2023/04/02 05:33:44;;;;;;;5.67;2.80;;;4.30;99.90;;;;;;5158766;27;20598;-82
2023/04/02 05:36:19;;;;;;;10.30;3.40;;;4.30;99.90;;;;;;5158095;27;20247;-88
2023/04/02 05:38:48;;;;;;;8.20;3.10;;;4.20;99.90;;;;;;5158527;27;20210;-81
2023/04/02 05:41:25;;;;;;;8.30;3.93;;;4.20;99.90;;;;;;5158857;27;20271;-88
2023/04/02 05:44:01;;;;;;;4.57;3.30;;;4.20;99.90;;;;;;5158317;27;20202;-87
2023/04/02 05:46:33;;;;;;;5.00;3.17;;;4.10;99.90;;;;;;5158165;27;20467;-88
2023/04/02 05:49:00;;;;;;;7.23;2.80;;;4.00;99.90;;;;;;5158768;27;20766;-84
2023/04/02 05:51:36;;;;;;;9.30;4.30;;;4.10;99.90;;;;;;5158793;27;20713;-87
2023/04/02 05:54:05;;;;;;;8.57;3.43;;;4.10;99.90;;;;;;5157758;27;20217;-82
2023/04/02 05:56:37;;;;;;;5.13;3.33;;;4.10;99.90;;;;;;5158283;27;20297;-84
2023/04/02 05:59:09;;;;;;;4.40;2.50;;;4.10;99.90;;;;;;5157753;27;20249;-87
2023/04/02 06:01:44;;;;;;;7.53;2.83;;;4.00;99.90;;;;;;5151207;27;20490;-86
2023/04/02 06:04:21;;;;;;;6.10;2.53;;;3.90;99.90;;;;;;5137071;27;20195;-87
2023/04/02 06:06:56;;;;;;;6.33;2.93;;;3.90;99.90;;;;;;5143211;27;20225;-86
2023/04/02 06:09:33;;;;;;;4.40;2.40;;;3.90;99.90;;;;;;5157670;27;20221;-89
2023/04/02 06:12:10;;;;;;;5.40;2.70;;;3.80;99.90;;;;;;5157210;27;20202;-88
2023/04/02 06:14:37;;;;;;;5.93;2.40;;;3.80;99.90;;;;;;5156806;27;20194;-84
2023/04/02 06:17:04;;;;;;;3.73;1.93;;;3.80;99.90;;;;;;5158079;27;20203;-85
2023/04/02 06:19:35;;;;;;;4.53;2.23;;;3.80;99.90;;;;;;5158281;27;20565;-87
2023/04/02 06:22:15;;;;;;;2.20;1.77;;;3.80;99.90;;;;;;5157970;27;20667;-87
2023/04/02 06:24:47;;;;;;;7.20;2.20;;;3.80;99.90;;;;;;5157450;27;20218;-82
2023/04/02 06:27:18;;;;;;;8.27;2.00;;;3.80;99.90;;;;;;5157871;27;20204;-87
2023/04/02 06:29:50;;;;;;;4.77;2.00;;;3.70;99.90;;;;;;5156549;27;20938;-86
2023/04/02 06:32:18;;;;;;;5.63;2.03;;;3.70;99.90;;;;;;5152985;27;20565;-85
2023/04/02 06:34:45;;;;;;;5.57;1.80;;;3.80;99.90;;;;;;5149029;27;20286;-85
2023/04/02 06:37:21;;;;;;;4.50;1.60;;;3.70;99.90;;;;;;5157733;27;20278;-86
2023/04/02 06:39:48;;;;;;;3.93;1.90;;;3.70;99.90;;;;;;5158028;27;20276;-84
2023/04/02 06:42:19;;;;;;;7.40;3.17;;;3.80;99.90;;;;;;5138858;27;20517;-82
2023/04/02 06:44:47;;;;;;;4.23;1.90;;;3.70;99.90;;;;;;5157366;27;20186;-89
2023/04/02 06:47:22;;;;;;;6.27;2.20;;;3.80;99.90;;;;;;5157327;27;20213;-91
2023/04/02 06:49:54;;;;;;;4.23;1.90;;;3.80;99.90;;;;;;5136232;27;20286;-79
2023/04/02 06:52:26;;;;;;;5.03;1.53;;;3.80;99.90;;;;;;5134908;27;20667;-81
2023/04/02 06:54:53;;;;;;;4.43;2.07;;;3.90;99.90;;;;;;5156590;27;20261;-83
2023/04/02 06:57:21;;;;;;;5.43;2.37;;;3.90;99.90;;;;;;5155395;27;20730;-80
2023/04/02 06:59:48;;;;;;;3.57;1.60;;;3.90;99.90;;;;;;5154395;27;20222;-77
2023/04/02 07:02:37;;;;;;;3.93;1.83;;;3.90;99.90;;;;;;5153800;27;20281;-79
2023/04/02 07:05:09;;;;;;;3.83;1.73;;;4.00;99.90;;;;;;5148064;27;20201;-79
2023/04/02 07:07:37;;;;;;;2.37;1.80;;;4.00;99.90;;;;;;5153527;27;20195;-78
2023/04/02 07:13:27;;;;;;;5.07;1.57;;;4.10;99.90;;;;;;5111661;27;20417;-82
2023/04/02 07:15:55;;;;;;;4.83;1.60;;;4.20;99.90;;;;;;5154398;27;20229;-78
2023/04/02 07:18:25;;;;;;;5.10;1.83;;;4.30;99.90;;;;;;5153773;27;20233;-78
2023/04/02 07:20:52;;;;;;;7.87;1.97;;;4.30;99.90;;;;;;5154338;27;20213;-78
2023/04/02 07:23:21;;;;;;;5.00;2.07;;;4.30;99.90;;;;;;5153079;27;20206;-78
2023/04/02 07:25:48;;;;;;;6.70;1.87;;;4.40;99.90;;;;;;5147972;27;20199;-79
2023/04/02 07:28:15;;;;;;;2.83;1.77;;;4.50;99.90;;;;;;5153216;27;20202;-79
2023/04/02 07:30:43;;;;;;;6.17;2.00;;;4.50;99.90;;;;;;5153192;27;20276;-80
2023/04/02 07:33:14;;;;;;;3.87;1.60;;;4.60;99.90;;;;;;5154721;27;20205;-80
2023/04/02 07:35:41;;;;;;;5.33;1.90;;;4.80;99.90;;;;;;5154094;27;20203;-80
2023/04/02 07:38:08;;;;;;;5.43;1.70;;;4.90;99.90;;;;;;5137061;27;20613;-78
2023/04/02 07:40:37;;;;;;;2.60;1.47;;;4.90;99.90;;;;;;5137973;27;20274;-79
2023/04/02 07:43:04;;;;;;;5.97;1.60;;;4.80;99.90;;;;;;5154469;27;20282;-86
2023/04/02 07:45:31;;;;;;;4.17;1.83;;;4.90;99.90;;;;;;5153609;27;20230;-79
2023/04/02 07:48:03;;;;;;;7.03;1.83;;;4.80;99.90;;;;;;5154680;27;20195;-77
2023/04/02 07:50:30;;;;;;;4.70;1.70;;;4.80;99.90;;;;;;5148363;27;20303;-80
2023/04/02 07:52:57;;;;;;;4.27;2.00;;;4.70;99.90;;;;;;5133011;27;20524;-77
2023/04/02 07:55:24;;;;;;;4.43;2.07;;;4.60;99.90;;;;;;5133651;27;20242;-77
2023/04/02 07:57:54;;;;;;;5.17;1.80;;;4.60;99.90;;;;;;5132745;27;20226;-76
2023/04/02 08:00:25;;;;;;;3.07;2.00;;;4.70;99.90;;;;;;5132679;27;20195;-77
2023/04/02 08:02:52;;;;;;;4.97;2.30;;;4.60;99.90;;;;;;5133522;27;20321;-78
2023/04/02 08:05:19;;;;;;;6.70;1.90;;;4.60;99.90;;;;;;5133421;27;20199;-77
2023/04/02 08:07:53;;;;;;;4.53;1.63;;;4.60;99.90;;;;;;5133178;27;20501;-81
2023/04/02 08:10:20;;;;;;;4.40;1.63;;;4.60;99.90;;;;;;5149605;27;20222;-78
2023/04/02 08:12:47;;;;;;;7.33;2.10;;;4.60;99.90;;;;;;5132311;27;20208;-77
2023/04/02 08:15:16;;;;;;;3.30;1.83;;;4.70;99.90;;;;;;5133057;28;20255;-78
2023/04/02 08:17:43;;;;;;;5.40;1.80;;;4.80;99.90;;;;;;5133135;28;20290;-79
2023/04/02 08:20:16;;;;;;;3.73;1.30;;;5.00;99.90;;;;;;5132749;27;20197;-79
2023/04/02 08:22:43;;;;;;;3.67;1.70;;;5.20;99.90;;;;;;5132922;28;20192;-77
2023/04/02 08:25:10;;;;;;;4.10;1.70;;;5.30;99.90;;;;;;5131647;27;20206;-80
2023/04/02 08:27:37;;;;;;;3.30;1.60;;;5.50;99.90;;;;;;5132046;28;20572;-79
2023/04/02 08:30:07;;;;;;;7.97;2.27;;;5.60;99.90;;;;;;5143764;27;20226;-79
2023/04/02 08:32:35;;;;;;;3.77;1.40;;;5.70;99.90;;;;;;5146766;27;20227;-81
2023/04/02 08:35:03;;;;;;;6.77;1.67;;;5.90;99.90;;;;;;5146568;27;20202;-80
2023/04/02 08:37:30;;;;;;;6.10;1.80;;;5.90;99.90;;;;;;5157926;27;20206;-81
2023/04/02 08:39:57;;;;;;;2.13;1.40;;;6.00;99.90;;;;;;5158342;27;20701;-80
2023/04/02 08:42:31;;;;;;;2.13;1.33;;;6.10;99.90;;;;;;5157112;27;20245;-77
2023/04/02 08:45:08;;;;;;;2.83;1.30;;;6.20;99.90;;;;;;5157041;27;20206;-80
2023/04/02 08:47:40;;;;;;;3.60;1.97;;;6.30;99.90;;;;;;5157808;27;20278;-78
2023/04/02 08:50:16;;;;;;;5.63;1.93;;;6.20;99.90;;;;;;5157735;27;20567;-83
2023/04/02 08:52:43;;;;;;;3.37;1.63;;;6.30;99.90;;;;;;5141095;27;20211;-82
2023/04/02 08:55:24;;;;;;;5.47;1.57;;;6.40;99.90;;;;;;5147890;27;20506;-79
2023/04/02 08:57:57;;;;;;;7.30;1.70;;;6.50;99.90;;;;;;5138646;27;20291;-83
2023/04/02 09:00:34;;;;;;;3.43;1.27;;;6.70;99.90;;;;;;5137491;27;20211;-83
2023/04/02 09:03:09;;;;;;;7.40;1.90;;;6.70;99.90;;;;;;5148352;27;20207;-82
2023/04/02 09:05:40;;;;;;;7.03;1.90;;;6.80;99.90;;;;;;5145141;27;20205;-81
2023/04/02 09:08:17;;;;;;;3.77;1.30;;;6.90;99.90;;;;;;5149672;27;20850;-83
2023/04/02 09:11:02;;;;;;;3.20;1.27;;;6.80;99.90;;;;;;5143411;27;20221;-82
2023/04/02 09:13:30;;;;;;;5.73;2.03;;;6.90;99.90;;;;;;5157606;27;20251;-82
2023/04/02 09:16:05;;;;;;;9.80;2.13;;;7.10;99.90;;;;;;5157467;27;20273;-80
2023/04/02 09:18:34;;;;;;;4.10;1.90;;;7.30;99.90;;;;;;5157638;27;20206;-83
2023/04/02 09:21:08;;;;;;;7.50;2.47;;;7.20;99.90;;;;;;5138650;27;20675;-83
2023/04/02 09:23:35;;;;;;;4.20;1.33;;;7.20;99.90;;;;;;5146040;27;20201;-84
2023/04/02 09:26:17;;;;;;;4.23;2.00;;;7.30;99.90;;;;;;5145050;27;20595;-79
2023/04/02 09:28:44;;;;;;;3.73;1.37;;;7.40;99.90;;;;;;5156415;27;20244;-80
2023/04/02 09:31:19;;;;;;;3.87;1.60;;;7.50;99.90;;;;;;5150570;27;20271;-82
2023/04/02 09:33:49;;;;;;;7.80;1.60;;;7.70;99.90;;;;;;5136865;27;20187;-80
2023/04/02 09:36:35;;;;;;;4.03;1.50;;;7.80;99.90;;;;;;5144256;27;20290;-82
2023/04/02 09:39:07;;;;;;;3.30;1.23;;;7.80;99.90;;;;;;5156061;27;20798;-82
2023/04/02 09:41:36;;;;;;;4.80;1.50;;;7.80;99.90;;;;;;5137824;27;20191;-84
2023/04/02 09:44:19;;;;;;;4.27;1.50;;;7.70;99.90;;;;;;5138089;27;20471;-82
2023/04/02 09:46:58;;;;;;;3.37;1.20;;;7.80;99.90;;;;;;5140602;27;20281;-87
2023/04/02 09:49:29;;;;;;;7.17;1.67;;;8.00;99.90;;;;;;5158275;27;20590;-87
2023/04/02 09:52:18;;;;;;;3.73;1.80;;;8.10;99.90;;;;;;5157640;27;20222;-84
2023/04/02 09:54:45;;;;;;;4.53;1.67;;;8.30;99.90;;;;;;5157258;27;20606;-85
2023/04/02 09:57:22;;;;;;;3.10;1.60;;;8.10;99.90;;;;;;5157758;27;20229;-85
2023/04/02 10:00:17;;;;;;;2.70;1.10;;;8.20;99.90;;;;;;5156962;27;20198;-83
2023/04/02 10:02:45;;;;;;;4.97;1.27;;;8.20;99.90;;;;;;5157536;27;20195;-85
2023/04/02 10:05:20;;;;;;;3.37;1.20;;;8.40;99.90;;;;;;5156980;27;20207;-85
2023/04/02 10:07:49;;;;;;;6.13;1.53;;;8.50;99.90;;;;;;5157246;27;20198;-83
2023/04/02 10:10:20;;;;;;;3.83;1.50;;;8.50;99.90;;;;;;5157338;27;20620;-84
2023/04/02 10:12:55;;;;;;;6.33;1.50;;;8.70;99.90;;;;;;5156975;27;20797;-79
2023/04/02 10:15:29;;;;;;;3.07;1.23;;;8.80;99.90;;;;;;5157491;27;20182;-79
2023/04/02 10:18:03;;;;;;;6.30;1.33;;;8.80;99.90;;;;;;5156898;27;20900;-82
2023/04/02 10:20:33;;;;;;;5.40;1.47;;;8.70;99.90;;;;;;5155167;27;20190;-83
2023/04/02 10:23:00;;;;;;;5.20;1.60;;;8.70;99.90;;;;;;5152570;27;20199;-86
2023/04/02 10:25:35;;;;;;;4.07;1.60;;;8.60;99.90;;;;;;5156932;27;20277;-85
2023/04/02 10:28:11;;;;;;;4.43;1.33;;;8.70;99.90;;;;;;5141680;27;20797;-84
2023/04/02 10:30:51;;;;;;;5.00;1.07;;;8.90;99.90;;;;;;5156300;27;20311;-83
2023/04/02 10:33:23;;;;;;;3.73;1.47;;;8.90;99.90;;;;;;5134605;27;20199;-85
2023/04/02 10:36:00;;;;;;;6.80;2.53;;;8.80;99.90;;;;;;5145562;27;20267;-81
2023/04/02 10:38:47;;;;;;;3.93;1.50;;;8.80;99.90;;;;;;5148729;27;20221;-81
2023/04/02 10:41:32;;;;;;;5.73;1.57;;;8.80;99.90;;;;;;5135083;27;20270;-79
2023/04/02 10:44:22;;;;;;;2.60;1.30;;;8.80;99.90;;;;;;5146918;27;20198;-82
2023/04/02 10:46:59;;;;;;;3.87;1.93;;;9.00;99.90;;;;;;5151743;27;20203;-77
2023/04/02 10:49:33;;;;;;;2.37;1.67;;;9.10;99.90;;;;;;5134245;27;20197;-75
2023/04/02 10:52:08;;;;;;;3.17;1.80;;;9.10;99.90;;;;;;5134138;27;20223;-79
2023/04/02 10:54:43;;;;;;;5.37;1.80;;;9.00;99.90;;;;;;5136104;27;20195;-77
2023/04/02 10:57:22;;;;;;;3.13;1.37;;;8.80;99.90;;;;;;5154851;27;20210;-79
2023/04/02 10:59:54;;;;;;;5.17;1.50;;;8.80;99.90;;;;;;5134731;27;20201;-80
2023/04/02 11:02:31;;;;;;;4.33;1.57;;;9.00;99.90;;;;;;5140427;27;20187;-83
2023/04/02 11:05:01;;;;;;;5.13;2.00;;;9.10;99.90;;;;;;5155482;27;20462;-80
2023/04/02 11:07:33;;;;;;;4.53;1.63;;;9.20;99.90;;;;;;5154926;27;20194;-78
2023/04/02 11:10:01;;;;;;;2.90;1.83;;;9.20;99.90;;;;;;5154810;27;20266;-79
2023/04/02 11:12:37;;;;;;;4.77;1.53;;;9.30;99.90;;;;;;5144666;27;20608;-79
2023/04/02 11:15:13;;;;;;;4.90;1.60;;;9.40;99.90;;;;;;5134099;27;20638;-79
2023/04/02 11:17:40;;;;;;;5.10;1.80;;;9.30;99.90;;;;;;5133847;27;20202;-80
2023/04/02 11:20:56;;;;;;;4.13;1.80;;;9.30;99.90;;;;;;5140110;27;20198;-79
2023/04/02 11:23:28;;;;;;;4.67;1.60;;;9.10;99.90;;;;;;5155294;27;20203;-84
2023/04/02 11:26:32;;;;;;;4.47;1.63;;;9.30;99.90;;;;;;5153171;27;20278;-83
2023/04/02 11:29:09;;;;;;;3.97;1.60;;;9.60;99.90;;;;;;5154543;27;20297;-80
2023/04/02 11:31:36;;;;;;;3.43;1.60;;;9.70;99.90;;;;;;5146610;27;20206;-80
2023/04/02 11:34:03;;;;;;;4.83;1.60;;;9.70;99.90;;;;;;5142459;27;20277;-84
2023/04/02 11:37:02;;;;;;;2.80;1.40;;;9.90;99.90;;;;;;5153943;27;20483;-83
2023/04/02 11:39:54;;;;;;;3.63;1.53;;;10.10;99.90;;;;;;5154510;27;20276;-87
2023/04/02 11:42:29;;;;;;;6.23;1.60;;;9.90;99.90;;;;;;5154443;27;20202;-81
2023/04/02 11:45:00;;;;;;;5.23;1.60;;;9.90;99.90;;;;;;5153208;27;20190;-81
2023/04/02 11:47:29;;;;;;;3.03;1.23;;;9.90;99.90;;;;;;5148613;27;20631;-81
2023/04/02 11:50:03;;;;;;;6.03;1.53;;;9.90;99.90;;;;;;5128146;27;20641;-80
2023/04/02 11:52:35;;;;;;;2.33;1.50;;;9.80;99.90;;;;;;5141957;27;20744;-81
2023/04/02 11:55:25;;;;;;;3.73;1.80;;;9.90;99.90;;;;;;5142613;27;20222;-82
2023/04/02 11:58:27;;;;;;;2.50;1.20;;;10.00;99.90;;;;;;5144514;27;20297;-79
2023/04/02 12:01:30;;;;;;;1.83;1.30;;;10.10;99.90;;;;;;5143725;27;20250;-81
2023/04/02 12:04:15;;;;;;;4.90;1.67;;;10.10;99.90;;;;;;5141112;27;20237;-78
2023/04/02 12:06:55;;;;;;;4.47;1.60;;;10.00;99.90;;;;;;5144293;27;20199;-86
2023/04/02 12:09:24;;;;;;;4.93;1.80;;;10.00;99.90;;;;;;5134688;27;20773;-85
2023/04/02 12:11:55;;;;;;;3.90;1.77;;;10.10;99.90;;;;;;5133758;27;20211;-81
2023/04/02 12:14:44;;;;;;;4.03;1.80;;;10.20;99.90;;;;;;5134055;27;20762;-81
2023/04/02 12:17:21;;;;;;;4.40;1.50;;;10.30;99.90;;;;;;5149940;27;20294;-82
2023/04/02 12:19:51;;;;;;;3.93;1.70;;;10.30;99.90;;;;;;5154083;27;20274;-82
2023/04/02 12:22:22;;;;;;;2.20;1.43;;;10.40;99.90;;;;;;5154670;27;20758;-79
2023/04/02 12:24:50;;;;;;;3.00;1.40;;;10.30;99.90;;;;;;5154443;27;20277;-78
2023/04/02 12:27:23;;;;;;;4.33;1.70;;;10.30;99.90;;;;;;5152972;27;20197;-81
2023/04/02 12:29:51;;;;;;;2.87;1.27;;;10.30;99.90;;;;;;5142968;27;20625;-77
2023/04/02 12:32:24;;;;;;;3.63;1.10;;;10.60;99.90;;;;;;5153349;27;20309;-79
2023/04/02 12:34:53;;;;;;;5.20;1.60;;;10.80;99.90;;;;;;5152389;27;20189;-80
2023/04/02 12:37:22;;;;;;;3.27;1.30;;;10.80;99.90;;;;;;5153437;27;20211;-81
2023/04/02 12:39:55;;;;;;;2.97;1.50;;;10.80;99.90;;;;;;5153303;27;20201;-79
2023/04/02 12:42:32;;;;;;;4.53;1.67;;;10.70;99.90;;;;;;5154305;27;20243;-76
2023/04/02 12:45:00;;;;;;;2.30;1.20;;;10.70;99.90;;;;;;5134442;27;20191;-83
2023/04/02 12:47:29;;;;;;;3.87;1.27;;;10.80;99.90;;;;;;5150933;27;20213;-78
2023/04/02 12:49:58;;;;;;;2.37;1.53;;;10.90;99.90;;;;;;5154027;27;20198;-79
2023/04/02 12:52:27;;;;;;;2.80;1.10;;;11.20;99.90;;;;;;5154142;27;20215;-83
2023/04/02 12:54:57;;;;;;;3.10;1.40;;;11.20;99.90;;;;;;5153014;27;20247;-81
2023/04/02 12:57:41;;;;;;;3.73;1.63;;;11.10;99.90;;;;;;5154399;27;20243;-83
2023/04/02 13:00:35;;;;;;;4.10;1.70;;;11.10;99.90;;;;;;5153260;27;20286;-79
2023/04/02 13:03:16;;;;;;;2.17;1.20;;;11.00;99.90;;;;;;5153285;27;20236;-86
2023/04/02 13:05:47;;;;;;;2.97;1.57;;;11.10;99.90;;;;;;5153322;27;20457;-82
2023/04/02 13:08:18;;;;;;;3.40;1.50;;;11.10;99.90;;;;;;5138807;27;20259;-81
2023/04/02 13:10:46;;;;;;;2.60;1.20;;;11.00;99.90;;;;;;5132556;27;20287;-79
2023/04/02 13:13:20;;;;;;;4.17;1.27;;;11.10;99.90;;;;;;5146185;27;20206;-82
2023/04/02 13:16:01;;;;;;;4.53;1.40;;;11.00;99.90;;;;;;5152762;27;20226;-80
2023/04/02 13:18:28;;;;;;;3.60;1.47;;;11.00;99.90;;;;;;5153842;27;20714;-83
2023/04/02 13:20:57;;;;;;;2.97;1.23;;;11.20;99.90;;;;;;5155085;27;20202;-87
2023/04/02 13:23:32;;;;;;;4.53;1.47;;;11.30;99.90;;;;;;5156064;27;20195;-82
2023/04/02 13:26:01;;;;;;;3.53;1.37;;;11.30;99.90;;;;;;5149240;27;20285;-83
2023/04/02 13:28:29;;;;;;;3.03;1.23;;;11.30;99.90;;;;;;5136337;27;20208;-81
2023/04/02 13:30:56;;;;;;;2.60;1.13;;;11.40;99.90;;;;;;5136085;27;20187;-83